Mumford, Texas
Current Conditions -  °F | °C
As of 12:35 AM on Tuesday 21 Oct 2014 (Local Time) from KLHB Reporting Station
Clear Clear  
Wind Chill: 65°   Ceiling: Unl
Heat Index: 65°   Visibility: 10mi
Dew Point: 59°   Wind: 0mph
Humidity: 82%   Direction: NA
Pressure: 30.04"   Gusts: NA
Location:  30.73°N, 96.57°W
Report Text: KLHB 210535Z AUTO 00000KT 10SM CLR 18/15 A3004 RMK AO2 T01830152
Loading
Personal Weather Stations






























Interactive Weather Map
Tropical Storm Tracking
New forecast layout! Learn more

10-Day Weather Forecast

Advertisements
Track Severe Weather on mobile